sensor_id;sensor_type;location;lat;lon;timestamp;pressure;altitude;pressure_sealevel;temperature;humidity
32789;BME280;19141;48.980;8.410;2023-01-16T05:22:40;98179.00;;;5.76;72.09
32789;BME280;19141;48.980;8.410;2023-01-16T05:25:05;98185.50;;;5.80;71.62
32789;BME280;19141;48.980;8.410;2023-01-16T05:27:31;98176.97;;;5.78;70.99
32789;BME280;19141;48.980;8.410;2023-01-16T05:29:56;98167.91;;;5.87;69.71
32789;BME280;19141;48.980;8.410;2023-01-16T05:32:21;98161.63;;;5.88;69.20
32789;BME280;19141;48.980;8.410;2023-01-16T05:34:47;98149.78;;;5.84;69.92
32789;BME280;19141;48.980;8.410;2023-01-16T05:37:12;98148.53;;;5.80;70.08
32789;BME280;19141;48.980;8.410;2023-01-16T05:39:38;98133.28;;;5.75;69.86
32789;BME280;19141;48.980;8.410;2023-01-16T05:42:03;98128.16;;;5.73;70.82
32789;BME280;19141;48.980;8.410;2023-01-16T05:44:29;98127.50;;;5.65;72.46
32789;BME280;19141;48.980;8.410;2023-01-16T05:46:54;98110.56;;;5.53;73.59
32789;BME280;19141;48.980;8.410;2023-01-16T05:49:19;98100.97;;;5.45;74.59
32789;BME280;19141;48.980;8.410;2023-01-16T05:51:45;98096.44;;;5.39;75.46
32789;BME280;19141;48.980;8.410;2023-01-16T05:54:11;98086.03;;;5.31;75.50
32789;BME280;19141;48.980;8.410;2023-01-16T05:56:37;98074.56;;;5.17;76.70
32789;BME280;19141;48.980;8.410;2023-01-16T05:59:02;98064.31;;;5.07;76.92
32789;BME280;19141;48.980;8.410;2023-01-16T06:01:28;98065.53;;;5.05;77.72
32789;BME280;19141;48.980;8.410;2023-01-16T06:03:53;98057.94;;;4.95;78.06
32789;BME280;19141;48.980;8.410;2023-01-16T06:06:18;98042.88;;;4.89;78.20
32789;BME280;19141;48.980;8.410;2023-01-16T06:08:46;98031.06;;;4.85;78.80
32789;BME280;19141;48.980;8.410;2023-01-16T06:11:11;98027.56;;;4.78;78.75
32789;BME280;19141;48.980;8.410;2023-01-16T06:13:36;98020.22;;;4.73;78.98
32789;BME280;19141;48.980;8.410;2023-01-16T06:16:02;98001.06;;;4.65;79.54
32789;BME280;19141;48.980;8.410;2023-01-16T06:18:27;98001.50;;;4.68;79.56
32789;BME280;19141;48.980;8.410;2023-01-16T06:20:53;97992.97;;;4.66;79.24
32789;BME280;19141;48.980;8.410;2023-01-16T06:23:19;97991.34;;;4.65;78.58
32789;BME280;19141;48.980;8.410;2023-01-16T06:25:48;97980.78;;;4.65;79.55
32789;BME280;19141;48.980;8.410;2023-01-16T06:28:14;97982.81;;;4.63;79.75
32789;BME280;19141;48.980;8.410;2023-01-16T06:30:39;97970.59;;;4.62;79.89
32789;BME280;19141;48.980;8.410;2023-01-16T06:33:05;97970.19;;;4.58;79.47
32789;BME280;19141;48.980;8.410;2023-01-16T06:35:30;97966.75;;;4.58;79.30
32789;BME280;19141;48.980;8.410;2023-01-16T06:37:56;97961.00;;;4.54;79.36
32789;BME280;19141;48.980;8.410;2023-01-16T06:40:21;97955.38;;;4.57;79.09
32789;BME280;19141;48.980;8.410;2023-01-16T06:42:46;97948.03;;;4.53;79.08
32789;BME280;19141;48.980;8.410;2023-01-16T06:45:12;97940.47;;;4.50;79.94
32789;BME280;19141;48.980;8.410;2023-01-16T06:47:37;97941.50;;;4.49;79.00
32789;BME280;19141;48.980;8.410;2023-01-16T06:50:03;97925.06;;;4.47;79.65
32789;BME280;19141;48.980;8.410;2023-01-16T06:52:28;97914.91;;;4.44;79.66
32789;BME280;19141;48.980;8.410;2023-01-16T06:54:54;97907.00;;;4.44;79.99
32789;BME280;19141;48.980;8.410;2023-01-16T06:57:21;97909.59;;;4.37;80.08
32789;BME280;19141;48.980;8.410;2023-01-16T06:59:46;97899.03;;;4.37;80.33
32789;BME280;19141;48.980;8.410;2023-01-16T07:02:11;97890.25;;;4.30;79.86
32789;BME280;19141;48.980;8.410;2023-01-16T07:04:37;97888.25;;;4.32;80.01
32789;BME280;19141;48.980;8.410;2023-01-16T07:07:02;97882.22;;;4.38;81.63
32789;BME280;19141;48.980;8.410;2023-01-16T07:09:28;97870.91;;;4.44;80.41
32789;BME280;19141;48.980;8.410;2023-01-16T07:11:53;97870.16;;;4.50;81.11
32789;BME280;19141;48.980;8.410;2023-01-16T07:14:19;97865.69;;;4.51;79.92
32789;BME280;19141;48.980;8.410;2023-01-16T07:17:03;97863.47;;;4.54;79.36
32789;BME280;19141;48.980;8.410;2023-01-16T07:19:47;97857.06;;;4.63;79.52
32789;BME280;19141;48.980;8.410;2023-01-16T07:22:30;97861.31;;;4.65;79.41
32789;BME280;19141;48.980;8.410;2023-01-16T07:25:14;97846.50;;;4.63;81.54
32789;BME280;19141;48.980;8.410;2023-01-16T07:27:41;97846.09;;;4.67;78.86
32789;BME280;19141;48.980;8.410;2023-01-16T07:30:08;97822.94;;;4.62;77.48
32789;BME280;19141;48.980;8.410;2023-01-16T07:32:34;97821.94;;;4.63;77.94
32789;BME280;19141;48.980;8.410;2023-01-16T07:34:59;97817.50;;;4.63;77.48
32789;BME280;19141;48.980;8.410;2023-01-16T07:37:25;97810.41;;;4.64;77.37
32789;BME280;19141;48.980;8.410;2023-01-16T07:39:50;97800.25;;;4.68;77.28
32789;BME280;19141;48.980;8.410;2023-01-16T07:42:15;97807.38;;;4.74;75.64
32789;BME280;19141;48.980;8.410;2023-01-16T07:44:41;97797.22;;;4.64;76.82
32789;BME280;19141;48.980;8.410;2023-01-16T07:47:06;97790.53;;;4.68;76.80
32789;BME280;19141;48.980;8.410;2023-01-16T07:49:32;97775.94;;;4.72;76.09
32789;BME280;19141;48.980;8.410;2023-01-16T07:51:57;97769.03;;;4.71;76.74
32789;BME280;19141;48.980;8.410;2023-01-16T07:54:22;97764.38;;;4.73;76.23
32789;BME280;19141;48.980;8.410;2023-01-16T07:56:48;97757.06;;;4.75;74.98
32789;BME280;19141;48.980;8.410;2023-01-16T07:59:14;97757.88;;;4.76;74.94
32789;BME280;19141;48.980;8.410;2023-01-16T08:01:39;97754.09;;;4.85;73.81
32789;BME280;19141;48.980;8.410;2023-01-16T08:04:05;97742.34;;;4.94;72.01
32789;BME280;19141;48.980;8.410;2023-01-16T08:06:31;97724.09;;;4.99;70.47
32789;BME280;19141;48.980;8.410;2023-01-16T08:08:56;97733.44;;;5.08;70.81
32789;BME280;19141;48.980;8.410;2023-01-16T08:11:21;97727.38;;;5.14;70.65
32789;BME280;19141;48.980;8.410;2023-01-16T08:14:04;97716.03;;;5.21;69.88
32789;BME280;19141;48.980;8.410;2023-01-16T08:16:30;97707.94;;;5.22;70.25
32789;BME280;19141;48.980;8.410;2023-01-16T08:18:56;97710.16;;;5.25;69.95
32789;BME280;19141;48.980;8.410;2023-01-16T08:21:22;97704.47;;;5.28;69.64
32789;BME280;19141;48.980;8.410;2023-01-16T08:23:47;97696.56;;;5.35;68.40
32789;BME280;19141;48.980;8.410;2023-01-16T08:26:13;97701.44;;;5.44;68.38
32789;BME280;19141;48.980;8.410;2023-01-16T08:28:39;97686.84;;;5.49;67.40
32789;BME280;19141;48.980;8.410;2023-01-16T08:31:14;97685.81;;;5.50;68.83
32789;BME280;19141;48.980;8.410;2023-01-16T08:33:42;97693.53;;;5.51;68.16
32789;BME280;19141;48.980;8.410;2023-01-16T08:36:10;97679.31;;;5.59;67.84
32789;BME280;19141;48.980;8.410;2023-01-16T08:38:35;97709.97;;;5.60;66.98
32789;BME280;19141;48.980;8.410;2023-01-16T08:41:01;97702.69;;;5.62;67.68
32789;BME280;19141;48.980;8.410;2023-01-16T08:43:26;97700.22;;;5.67;66.57
32789;BME280;19141;48.980;8.410;2023-01-16T08:46:21;97682.47;;;6.40;63.68
32789;BME280;19141;48.980;8.410;2023-01-16T08:49:11;97683.50;;;6.39;66.64
32789;BME280;19141;48.980;8.410;2023-01-16T08:51:56;97657.00;;;6.46;67.50
32789;BME280;19141;48.980;8.410;2023-01-16T08:54:22;97666.31;;;6.55;66.66
32789;BME280;19141;48.980;8.410;2023-01-16T08:56:47;97650.47;;;6.55;67.08
32789;BME280;19141;48.980;8.410;2023-01-16T08:59:13;97633.34;;;6.58;64.53
32789;BME280;19141;48.980;8.410;2023-01-16T09:01:39;97630.22;;;6.74;61.36
32789;BME280;19141;48.980;8.410;2023-01-16T09:04:05;97622.25;;;6.80;61.42
32789;BME280;19141;48.980;8.410;2023-01-16T09:06:31;97614.81;;;6.96;60.05
32789;BME280;19141;48.980;8.410;2023-01-16T09:08:57;97615.16;;;7.06;59.48
32789;BME280;19141;48.980;8.410;2023-01-16T09:11:22;97607.34;;;7.18;57.48
32789;BME280;19141;48.980;8.410;2023-01-16T09:14:06;97609.94;;;7.24;57.64
32789;BME280;19141;48.980;8.410;2023-01-16T09:16:31;97606.44;;;7.30;57.09
32789;BME280;19141;48.980;8.410;2023-01-16T09:18:57;97607.03;;;7.32;57.05
32789;BME280;19141;48.980;8.410;2023-01-16T09:21:22;97604.31;;;7.39;56.75
32789;BME280;19141;48.980;8.410;2023-01-16T09:23:50;97601.91;;;7.38;57.15
32789;BME280;19141;48.980;8.410;2023-01-16T09:26:16;97602.69;;;7.38;57.48
32789;BME280;19141;48.980;8.410;2023-01-16T09:28:41;97604.72;;;7.36;57.81
32789;BME280;19141;48.980;8.410;2023-01-16T09:31:07;97611.69;;;7.37;57.45
32789;BME280;19141;48.980;8.410;2023-01-16T09:33:32;97594.00;;;7.31;57.96
32789;BME280;19141;48.980;8.410;2023-01-16T09:35:58;97602.94;;;7.30;57.97
32789;BME280;19141;48.980;8.410;2023-01-16T09:38:23;97594.41;;;7.28;58.34
32789;BME280;19141;48.980;8.410;2023-01-16T09:40:54;97596.72;;;7.24;59.08
32789;BME280;19141;48.980;8.410;2023-01-16T09:43:40;97594.88;;;7.25;58.70
32789;BME280;19141;48.980;8.410;2023-01-16T09:46:19;97589.75;;;7.23;58.62
32789;BME280;19141;48.980;8.410;2023-01-16T09:49:01;97588.16;;;7.22;58.89
32789;BME280;19141;48.980;8.410;2023-01-16T09:51:33;97584.63;;;7.28;58.91
32789;BME280;19141;48.980;8.410;2023-01-16T09:54:21;97587.28;;;7.28;58.75
32789;BME280;19141;48.980;8.410;2023-01-16T09:57:12;97587.22;;;7.35;58.02
32789;BME280;19141;48.980;8.410;2023-01-16T09:59:57;97573.47;;;7.26;59.04
32789;BME280;19141;48.980;8.410;2023-01-16T10:02:27;97584.81;;;7.33;59.01
32789;BME280;19141;48.980;8.410;2023-01-16T10:04:55;97574.38;;;7.39;59.02
32789;BME280;19141;48.980;8.410;2023-01-16T10:07:47;97571.13;;;7.37;59.40
32789;BME280;19141;48.980;8.410;2023-01-16T10:10:39;97558.78;;;7.30;60.83
32789;BME280;19141;48.980;8.410;2023-01-16T10:13:34;97562.22;;;7.31;60.41
32789;BME280;19141;48.980;8.410;2023-01-16T10:19:17;97555.50;;;7.28;60.79
32789;BME280;19141;48.980;8.410;2023-01-16T10:25:25;97530.28;;;7.26;61.33
32789;BME280;19141;48.980;8.410;2023-01-16T10:30:35;97533.22;;;7.36;61.81
32789;BME280;19141;48.980;8.410;2023-01-16T10:35:40;97523.38;;;7.43;61.13
32789;BME280;19141;48.980;8.410;2023-01-16T10:38:42;97521.13;;;7.47;61.37
32789;BME280;19141;48.980;8.410;2023-01-16T10:44:17;97508.75;;;7.41;63.19
32789;BME280;19141;48.980;8.410;2023-01-16T10:47:03;97506.09;;;7.41;63.39
32789;BME280;19141;48.980;8.410;2023-01-16T10:49:51;97501.53;;;7.29;63.91
32789;BME280;19141;48.980;8.410;2023-01-16T10:52:17;97502.31;;;7.30;64.29
32789;BME280;19141;48.980;8.410;2023-01-16T10:54:42;97490.34;;;7.27;64.63
32789;BME280;19141;48.980;8.410;2023-01-16T10:57:15;97485.50;;;7.24;65.29
32789;BME280;19141;48.980;8.410;2023-01-16T10:59:42;97480.22;;;7.24;66.09
32789;BME280;19141;48.980;8.410;2023-01-16T11:02:20;97478.13;;;7.26;66.07
32789;BME280;19141;48.980;8.410;2023-01-16T11:04:49;97469.88;;;7.16;66.10
32789;BME280;19141;48.980;8.410;2023-01-16T11:07:17;97463.13;;;7.20;66.71
32789;BME280;19141;48.980;8.410;2023-01-16T11:09:44;97458.69;;;7.14;65.80
32789;BME280;19141;48.980;8.410;2023-01-16T11:12:22;97443.78;;;7.20;67.57
32789;BME280;19141;48.980;8.410;2023-01-16T11:15:15;97431.66;;;7.30;66.75
32789;BME280;19141;48.980;8.410;2023-01-16T11:18:00;97421.34;;;7.41;65.04
32789;BME280;19141;48.980;8.410;2023-01-16T11:20:44;97414.06;;;7.54;64.24
32789;BME280;19141;48.980;8.410;2023-01-16T11:23:21;97415.41;;;7.64;64.20
32789;BME280;19141;48.980;8.410;2023-01-16T11:25:50;97405.28;;;7.72;64.05
32789;BME280;19141;48.980;8.410;2023-01-16T11:28:30;97391.13;;;7.78;63.93
32789;BME280;19141;48.980;8.410;2023-01-16T11:30:59;97385.53;;;7.86;63.22
32789;BME280;19141;48.980;8.410;2023-01-16T11:33:27;97370.44;;;7.87;62.64
32789;BME280;19141;48.980;8.410;2023-01-16T11:35:59;97374.69;;;7.88;63.12
32789;BME280;19141;48.980;8.410;2023-01-16T11:38:27;97352.81;;;7.93;63.28
32789;BME280;19141;48.980;8.410;2023-01-16T11:40:58;97356.53;;;8.03;62.49
32789;BME280;19141;48.980;8.410;2023-01-16T11:43:27;97344.44;;;8.07;62.43
32789;BME280;19141;48.980;8.410;2023-01-16T11:46:34;97336.88;;;8.23;61.99
32789;BME280;19141;48.980;8.410;2023-01-16T11:49:04;97330.56;;;8.35;61.96
32789;BME280;19141;48.980;8.410;2023-01-16T11:51:31;97330.22;;;8.43;61.45
32789;BME280;19141;48.980;8.410;2023-01-16T11:53:59;97318.69;;;8.50;62.05
32789;BME280;19141;48.980;8.410;2023-01-16T11:56:45;97308.09;;;8.61;61.00
32789;BME280;19141;48.980;8.410;2023-01-16T11:59:28;97317.19;;;8.65;60.94
32789;BME280;19141;48.980;8.410;2023-01-16T12:13:12;97269.91;;;9.43;57.22
32789;BME280;19141;48.980;8.410;2023-01-16T12:16:09;97251.06;;;9.44;57.45
32789;BME280;19141;48.980;8.410;2023-01-16T12:19:07;97241.28;;;9.95;55.82
32789;BME280;19141;48.980;8.410;2023-01-16T12:21:42;97243.72;;;10.14;54.61
32789;BME280;19141;48.980;8.410;2023-01-16T12:24:17;97243.53;;;10.20;54.21
32789;BME280;19141;48.980;8.410;2023-01-16T12:29:50;97233.81;;;10.26;53.46
32789;BME280;19141;48.980;8.410;2023-01-16T12:32:34;97210.97;;;10.30;53.35
32789;BME280;19141;48.980;8.410;2023-01-16T12:38:14;97196.66;;;10.31;53.74
32789;BME280;19141;48.980;8.410;2023-01-16T12:40:54;97201.66;;;10.11;53.12
32789;BME280;19141;48.980;8.410;2023-01-16T12:52:51;97153.41;;;9.51;53.46
32789;BME280;19141;48.980;8.410;2023-01-16T13:00:48;97133.56;;;9.25;53.20
32789;BME280;19141;48.980;8.410;2023-01-16T13:05:53;97150.34;;;9.26;53.81
32789;BME280;19141;48.980;8.410;2023-01-16T13:10:49;97120.38;;;9.14;54.48
32789;BME280;19141;48.980;8.410;2023-01-16T13:13:42;97120.19;;;9.04;54.62
32789;BME280;19141;48.980;8.410;2023-01-16T13:16:25;97107.56;;;8.94;55.14
32789;BME280;19141;48.980;8.410;2023-01-16T13:18:57;97119.00;;;8.94;55.06
32789;BME280;19141;48.980;8.410;2023-01-16T13:21:29;97116.47;;;8.88;54.63
32789;BME280;19141;48.980;8.410;2023-01-16T13:24:09;97118.66;;;8.91;54.79
32789;BME280;19141;48.980;8.410;2023-01-16T13:26:38;97091.28;;;8.90;54.42
32789;BME280;19141;48.980;8.410;2023-01-16T13:29:13;97078.94;;;8.96;53.74
32789;BME280;19141;48.980;8.410;2023-01-16T13:34:19;97055.44;;;8.88;54.67
32789;BME280;19141;48.980;8.410;2023-01-16T13:40:04;97051.03;;;8.93;55.88
32789;BME280;19141;48.980;8.410;2023-01-16T13:42:36;97054.22;;;8.95;54.82
32789;BME280;19141;48.980;8.410;2023-01-16T13:45:09;97053.56;;;9.05;54.90
32789;BME280;19141;48.980;8.410;2023-01-16T13:47:59;97052.88;;;9.10;55.24
32789;BME280;19141;48.980;8.410;2023-01-16T13:50:27;97038.22;;;9.24;54.40
32789;BME280;19141;48.980;8.410;2023-01-16T13:52:55;97033.06;;;9.17;54.36
32789;BME280;19141;48.980;8.410;2023-01-16T13:55:31;97050.13;;;9.21;54.05
32789;BME280;19141;48.980;8.410;2023-01-16T13:58:07;97029.84;;;9.15;54.67
32789;BME280;19141;48.980;8.410;2023-01-16T14:00:36;97012.72;;;9.23;54.39
32789;BME280;19141;48.980;8.410;2023-01-16T14:03:19;97005.56;;;9.07;54.36
32789;BME280;19141;48.980;8.410;2023-01-16T14:11:33;96980.44;;;8.97;55.31
32789;BME280;19141;48.980;8.410;2023-01-16T14:14:30;96974.50;;;8.90;55.33
32789;BME280;19141;48.980;8.410;2023-01-16T14:17:16;96977.06;;;8.85;54.88
32789;BME280;19141;48.980;8.410;2023-01-16T14:22:19;96955.28;;;8.83;54.89
32789;BME280;19141;48.980;8.410;2023-01-16T14:24:50;96954.94;;;8.80;55.10
32789;BME280;19141;48.980;8.410;2023-01-16T14:27:19;96955.69;;;8.75;55.10
32789;BME280;19141;48.980;8.410;2023-01-16T14:29:57;96950.84;;;8.72;55.65
32789;BME280;19141;48.980;8.410;2023-01-16T14:32:27;96945.69;;;8.65;55.33
32789;BME280;19141;48.980;8.410;2023-01-16T14:35:11;96947.09;;;8.68;56.11
32789;BME280;19141;48.980;8.410;2023-01-16T14:40:21;96946.66;;;8.59;57.34
32789;BME280;19141;48.980;8.410;2023-01-16T14:42:55;96953.22;;;8.40;61.29
32789;BME280;19141;48.980;8.410;2023-01-16T14:45:41;96951.59;;;8.22;63.65
32789;BME280;19141;48.980;8.410;2023-01-16T14:48:45;96958.69;;;8.05;64.95
32789;BME280;19141;48.980;8.410;2023-01-16T14:51:55;96961.22;;;7.71;71.30
32789;BME280;19141;48.980;8.410;2023-01-16T14:54:42;96952.72;;;7.46;78.75
32789;BME280;19141;48.980;8.410;2023-01-16T14:57:28;96966.81;;;7.11;81.59
32789;BME280;19141;48.980;8.410;2023-01-16T15:00:02;96971.38;;;6.80;86.60
32789;BME280;19141;48.980;8.410;2023-01-16T15:02:35;96965.81;;;6.47;91.81
32789;BME280;19141;48.980;8.410;2023-01-16T15:07:44;96964.84;;;6.30;95.75
32789;BME280;19141;48.980;8.410;2023-01-16T15:10:14;96948.59;;;6.14;95.61
32789;BME280;19141;48.980;8.410;2023-01-16T15:12:43;96962.94;;;6.18;94.03
32789;BME280;19141;48.980;8.410;2023-01-16T15:15:37;96943.69;;;6.30;92.05
32789;BME280;19141;48.980;8.410;2023-01-16T15:18:14;96945.06;;;6.32;92.14
32789;BME280;19141;48.980;8.410;2023-01-16T15:21:00;96936.22;;;6.38;90.75
32789;BME280;19141;48.980;8.410;2023-01-16T15:23:44;96932.34;;;6.41;90.82
32789;BME280;19141;48.980;8.410;2023-01-16T15:26:19;96928.94;;;6.52;87.07
32789;BME280;19141;48.980;8.410;2023-01-16T15:28:53;96934.31;;;6.57;87.26
32789;BME280;19141;48.980;8.410;2023-01-16T15:31:30;96954.13;;;6.66;85.19
32789;BME280;19141;48.980;8.410;2023-01-16T15:34:14;96958.16;;;6.69;86.30
32789;BME280;19141;48.980;8.410;2023-01-16T15:36:51;96954.00;;;6.61;87.58
32789;BME280;19141;48.980;8.410;2023-01-16T15:42:10;96948.88;;;6.36;91.16
32789;BME280;19141;48.980;8.410;2023-01-16T15:44:57;96948.16;;;6.29;91.70
32789;BME280;19141;48.980;8.410;2023-01-16T15:50:15;96965.88;;;6.29;91.85
32789;BME280;19141;48.980;8.410;2023-01-16T15:52:42;96962.19;;;6.30;90.16
32789;BME280;19141;48.980;8.410;2023-01-16T15:57:47;96971.03;;;6.23;90.89
32789;BME280;19141;48.980;8.410;2023-01-16T16:00:34;96960.41;;;6.12;93.89
32789;BME280;19141;48.980;8.410;2023-01-16T16:03:19;96973.44;;;5.95;96.19
32789;BME280;19141;48.980;8.410;2023-01-16T16:05:49;96962.56;;;5.85;97.73
32789;BME280;19141;48.980;8.410;2023-01-16T16:08:49;96974.81;;;5.79;98.34
32789;BME280;19141;48.980;8.410;2023-01-16T16:11:08;96980.06;;;5.67;97.92
32789;BME280;19141;48.980;8.410;2023-01-16T16:13:54;96980.19;;;5.72;96.95
32789;BME280;19141;48.980;8.410;2023-01-16T16:16:25;96974.91;;;5.72;96.97
32789;BME280;19141;48.980;8.410;2023-01-16T16:21:54;96994.56;;;5.77;96.21
32789;BME280;19141;48.980;8.410;2023-01-16T16:24:38;96982.38;;;5.76;95.96
32789;BME280;19141;48.980;8.410;2023-01-16T16:27:13;96984.44;;;5.73;95.94
32789;BME280;19141;48.980;8.410;2023-01-16T16:29:41;96986.50;;;5.71;96.45
32789;BME280;19141;48.980;8.410;2023-01-16T16:32:11;96978.88;;;5.63;96.28
32789;BME280;19141;48.980;8.410;2023-01-16T16:34:48;96993.84;;;5.69;96.07
32789;BME280;19141;48.980;8.410;2023-01-16T16:37:16;96996.31;;;5.64;96.85
32789;BME280;19141;48.980;8.410;2023-01-16T16:40:08;96986.41;;;5.60;96.69
32789;BME280;19141;48.980;8.410;2023-01-16T16:42:51;96970.00;;;5.58;97.37
32789;BME280;19141;48.980;8.410;2023-01-16T16:47:44;96997.59;;;5.62;96.22
32789;BME280;19141;48.980;8.410;2023-01-16T16:53:02;97001.59;;;5.46;100.00
32789;BME280;19141;48.980;8.410;2023-01-16T16:55:32;97000.69;;;5.34;100.00
32789;BME280;19141;48.980;8.410;2023-01-16T16:58:00;96989.63;;;5.25;100.00
32789;BME280;19141;48.980;8.410;2023-01-16T17:00:27;96996.22;;;5.16;100.00
32789;BME280;19141;48.980;8.410;2023-01-16T17:03:17;96995.69;;;5.07;100.00
32789;BME280;19141;48.980;8.410;2023-01-16T17:05:44;96999.97;;;5.02;100.00
32789;BME280;19141;48.980;8.410;2023-01-16T17:08:19;97010.59;;;4.95;100.00
32789;BME280;19141;48.980;8.410;2023-01-16T17:10:45;97023.25;;;4.86;100.00
32789;BME280;19141;48.980;8.410;2023-01-16T17:13:15;97024.91;;;4.81;100.00
32789;BME280;19141;48.980;8.410;2023-01-16T17:15:42;97032.66;;;4.76;100.00
32789;BME280;19141;48.980;8.410;2023-01-16T17:18:09;97034.34;;;4.70;100.00
32789;BME280;19141;48.980;8.410;2023-01-16T17:20:35;97038.03;;;4.62;100.00
32789;BME280;19141;48.980;8.410;2023-01-16T17:23:02;97034.03;;;4.53;100.00
32789;BME280;19141;48.980;8.410;2023-01-16T17:25:29;97037.28;;;4.49;100.00
32789;BME280;19141;48.980;8.410;2023-01-16T17:27:55;97049.50;;;4.43;100.00
32789;BME280;19141;48.980;8.410;2023-01-16T17:30:23;97043.41;;;4.43;100.00
32789;BME280;19141;48.980;8.410;2023-01-16T17:32:59;97028.00;;;4.46;100.00
32789;BME280;19141;48.980;8.410;2023-01-16T17:35:33;97043.22;;;4.44;100.00
32789;BME280;19141;48.980;8.410;2023-01-16T17:37:58;97019.91;;;4.41;100.00
32789;BME280;19141;48.980;8.410;2023-01-16T17:40:24;97045.47;;;4.41;100.00
32789;BME280;19141;48.980;8.410;2023-01-16T17:42:49;97043.25;;;4.38;100.00
32789;BME280;19141;48.980;8.410;2023-01-16T17:45:42;97033.72;;;4.36;100.00
32789;BME280;19141;48.980;8.410;2023-01-16T17:48:18;97037.00;;;4.32;100.00
32789;BME280;19141;48.980;8.410;2023-01-16T17:50:43;97046.53;;;4.33;100.00
32789;BME280;19141;48.980;8.410;2023-01-16T17:53:14;97035.53;;;4.36;100.00
32789;BME280;19141;48.980;8.410;2023-01-16T17:55:43;97030.09;;;4.38;100.00
32789;BME280;19141;48.980;8.410;2023-01-16T17:58:36;97048.31;;;4.39;100.00
32789;BME280;19141;48.980;8.410;2023-01-16T18:01:22;97025.44;;;4.33;100.00
32789;BME280;19141;48.980;8.410;2023-01-16T18:03:52;97040.22;;;4.34;100.00
32789;BME280;19141;48.980;8.410;2023-01-16T18:06:21;97048.13;;;4.34;100.00
32789;BME280;19141;48.980;8.410;2023-01-16T18:08:47;97044.28;;;4.30;100.00
32789;BME280;19141;48.980;8.410;2023-01-16T18:11:13;97058.69;;;4.34;100.00
32789;BME280;19141;48.980;8.410;2023-01-16T18:13:57;97067.81;;;4.31;100.00
32789;BME280;19141;48.980;8.410;2023-01-16T18:16:41;97064.38;;;4.31;100.00
32789;BME280;19141;48.980;8.410;2023-01-16T18:19:24;97076.94;;;4.29;100.00
32789;BME280;19141;48.980;8.410;2023-01-16T18:21:50;97087.47;;;4.29;100.00
32789;BME280;19141;48.980;8.410;2023-01-16T18:24:38;97093.19;;;4.26;100.00
32789;BME280;19141;48.980;8.410;2023-01-16T18:27:06;97103.13;;;4.24;100.00
32789;BME280;19141;48.980;8.410;2023-01-16T18:29:32;97118.94;;;4.24;100.00
32789;BME280;19141;48.980;8.410;2023-01-16T18:31:58;97127.84;;;4.23;100.00
32789;BME280;19141;48.980;8.410;2023-01-16T18:34:42;97132.31;;;4.22;100.00
32789;BME280;19141;48.980;8.410;2023-01-16T18:37:08;97156.22;;;4.21;100.00
32789;BME280;19141;48.980;8.410;2023-01-16T18:39:33;97143.06;;;4.14;100.00
32789;BME280;19141;48.980;8.410;2023-01-16T18:42:17;97148.75;;;4.18;100.00
32789;BME280;19141;48.980;8.410;2023-01-16T18:45:02;97157.66;;;4.17;100.00
32789;BME280;19141;48.980;8.410;2023-01-16T18:47:46;97161.31;;;4.16;100.00
32789;BME280;19141;48.980;8.410;2023-01-16T18:50:30;97175.50;;;4.15;100.00
32789;BME280;19141;48.980;8.410;2023-01-16T18:53:26;97175.13;;;4.11;100.00
32789;BME280;19141;48.980;8.410;2023-01-16T18:56:13;97188.06;;;4.13;100.00
32789;BME280;19141;48.980;8.410;2023-01-16T18:58:58;97176.53;;;4.14;100.00
32789;BME280;19141;48.980;8.410;2023-01-16T19:01:42;97204.69;;;4.13;100.00
32789;BME280;19141;48.980;8.410;2023-01-16T19:04:20;97206.72;;;4.11;100.00
32789;BME280;19141;48.980;8.410;2023-01-16T19:06:46;97209.53;;;4.09;100.00
32789;BME280;19141;48.980;8.410;2023-01-16T19:09:14;97205.72;;;4.05;100.00
32789;BME280;19141;48.980;8.410;2023-01-16T19:11:40;97229.59;;;4.04;100.00
32789;BME280;19141;48.980;8.410;2023-01-16T19:14:06;97221.53;;;3.99;100.00
32789;BME280;19141;48.980;8.410;2023-01-16T19:16:31;97216.25;;;3.99;100.00
32789;BME280;19141;48.980;8.410;2023-01-16T19:19:13;97212.63;;;3.93;100.00
32789;BME280;19141;48.980;8.410;2023-01-16T19:21:42;97220.75;;;3.92;100.00
32789;BME280;19141;48.980;8.410;2023-01-16T19:24:13;97238.97;;;3.93;100.00
32789;BME280;19141;48.980;8.410;2023-01-16T19:26:40;97231.44;;;3.90;100.00
32789;BME280;19141;48.980;8.410;2023-01-16T19:29:14;97245.84;;;3.88;100.00
32789;BME280;19141;48.980;8.410;2023-01-16T19:31:39;97241.59;;;3.80;100.00
32789;BME280;19141;48.980;8.410;2023-01-16T19:34:06;97229.25;;;3.74;100.00
32789;BME280;19141;48.980;8.410;2023-01-16T19:36:31;97218.72;;;3.67;100.00
32789;BME280;19141;48.980;8.410;2023-01-16T19:38:57;97224.19;;;3.72;100.00
32789;BME280;19141;48.980;8.410;2023-01-16T19:41:24;97234.72;;;3.79;100.00
32789;BME280;19141;48.980;8.410;2023-01-16T19:44:08;97246.88;;;3.80;100.00
32789;BME280;19141;48.980;8.410;2023-01-16T19:46:53;97247.25;;;3.77;100.00
32789;BME280;19141;48.980;8.410;2023-01-16T19:49:18;97242.00;;;3.77;100.00
32789;BME280;19141;48.980;8.410;2023-01-16T19:51:43;97257.41;;;3.80;100.00
32789;BME280;19141;48.980;8.410;2023-01-16T19:54:09;97260.03;;;3.80;100.00
32789;BME280;19141;48.980;8.410;2023-01-16T19:56:35;97275.19;;;3.78;100.00
32789;BME280;19141;48.980;8.410;2023-01-16T19:59:03;97264.50;;;3.79;100.00
32789;BME280;19141;48.980;8.410;2023-01-16T20:01:30;97274.81;;;3.81;100.00
32789;BME280;19141;48.980;8.410;2023-01-16T20:04:03;97268.53;;;3.75;100.00
32789;BME280;19141;48.980;8.410;2023-01-16T20:06:30;97281.31;;;3.72;100.00
32789;BME280;19141;48.980;8.410;2023-01-16T20:08:56;97273.00;;;3.75;100.00
32789;BME280;19141;48.980;8.410;2023-01-16T20:11:22;97274.59;;;3.76;100.00
32789;BME280;19141;48.980;8.410;2023-01-16T20:14:07;97279.06;;;3.75;100.00
32789;BME280;19141;48.980;8.410;2023-01-16T20:16:33;97280.28;;;3.79;100.00
32789;BME280;19141;48.980;8.410;2023-01-16T20:18:58;97288.19;;;3.79;100.00
32789;BME280;19141;48.980;8.410;2023-01-16T20:21:24;97300.13;;;3.82;100.00
32789;BME280;19141;48.980;8.410;2023-01-16T20:23:49;97292.03;;;3.84;100.00
32789;BME280;19141;48.980;8.410;2023-01-16T20:26:14;97293.25;;;3.88;100.00